sensor_id;sensor_type;location;lat;lon;timestamp;pressure;altitude;pressure_sealevel;temperature;humidity
52307;BME280;38249;48.920;12.882;2022-09-09T00:01:20;96838.13;;;19.25;61.41
52307;BME280;38249;48.920;12.882;2022-09-09T00:03:53;96832.16;;;19.19;61.58
52307;BME280;38249;48.920;12.882;2022-09-09T00:06:28;96836.03;;;19.18;61.49
52307;BME280;38249;48.920;12.882;2022-09-09T00:09:01;96841.53;;;19.22;61.42
52307;BME280;38249;48.920;12.882;2022-09-09T00:11:34;96844.19;;;19.18;61.43
52307;BME280;38249;48.920;12.882;2022-09-09T00:14:03;96838.59;;;19.31;60.63
52307;BME280;38249;48.920;12.882;2022-09-09T00:16:36;96839.16;;;19.01;61.46
52307;BME280;38249;48.920;12.882;2022-09-09T00:19:13;96842.16;;;18.96;61.60
52307;BME280;38249;48.920;12.882;2022-09-09T00:21:55;96841.28;;;18.92;61.49
52307;BME280;38249;48.920;12.882;2022-09-09T00:24:27;96834.44;;;18.82;61.83
52307;BME280;38249;48.920;12.882;2022-09-09T00:27:01;96834.38;;;18.78;61.78
52307;BME280;38249;48.920;12.882;2022-09-09T00:29:35;96834.28;;;18.75;61.78
52307;BME280;38249;48.920;12.882;2022-09-09T00:32:12;96817.66;;;18.76;61.50
52307;BME280;38249;48.920;12.882;2022-09-09T00:34:47;96824.22;;;18.75;61.49
52307;BME280;38249;48.920;12.882;2022-09-09T00:37:18;96834.50;;;18.66;61.50
52307;BME280;38249;48.920;12.882;2022-09-09T00:39:46;96838.28;;;18.61;61.67
52307;BME280;38249;48.920;12.882;2022-09-09T00:42:15;96830.91;;;18.62;61.71
52307;BME280;38249;48.920;12.882;2022-09-09T00:44:56;96835.78;;;18.72;61.17
52307;BME280;38249;48.920;12.882;2022-09-09T00:47:40;96830.34;;;18.72;61.12
52307;BME280;38249;48.920;12.882;2022-09-09T00:50:17;96830.13;;;18.61;61.34
52307;BME280;38249;48.920;12.882;2022-09-09T00:52:55;96838.44;;;18.53;61.88
52307;BME280;38249;48.920;12.882;2022-09-09T00:55:28;96837.94;;;18.47;61.63
52307;BME280;38249;48.920;12.882;2022-09-09T00:57:59;96830.41;;;18.24;62.00
52307;BME280;38249;48.920;12.882;2022-09-09T01:00:27;96838.09;;;18.38;61.91
52307;BME280;38249;48.920;12.882;2022-09-09T01:03:19;96841.59;;;18.55;61.37
52307;BME280;38249;48.920;12.882;2022-09-09T01:05:57;96832.31;;;18.40;61.58
52307;BME280;38249;48.920;12.882;2022-09-09T01:08:48;96849.13;;;18.45;61.28
52307;BME280;38249;48.920;12.882;2022-09-09T01:11:21;96844.41;;;18.26;61.67
52307;BME280;38249;48.920;12.882;2022-09-09T01:13:55;96849.13;;;18.29;61.28
52307;BME280;38249;48.920;12.882;2022-09-09T01:16:26;96843.34;;;18.15;61.79
52307;BME280;38249;48.920;12.882;2022-09-09T01:18:54;96839.69;;;18.07;61.89
52307;BME280;38249;48.920;12.882;2022-09-09T01:21:32;96841.09;;;18.17;61.55
52307;BME280;38249;48.920;12.882;2022-09-09T01:24:20;96843.63;;;18.26;61.71
52307;BME280;38249;48.920;12.882;2022-09-09T01:26:51;96848.28;;;18.09;61.87
52307;BME280;38249;48.920;12.882;2022-09-09T01:29:18;96851.59;;;18.03;61.78
52307;BME280;38249;48.920;12.882;2022-09-09T01:31:53;96840.66;;;18.15;61.72
52307;BME280;38249;48.920;12.882;2022-09-09T01:34:22;96845.72;;;18.01;61.97
52307;BME280;38249;48.920;12.882;2022-09-09T01:36:53;96833.47;;;18.07;61.46
52307;BME280;38249;48.920;12.882;2022-09-09T01:39:22;96835.63;;;17.85;61.55
52307;BME280;38249;48.920;12.882;2022-09-09T01:41:50;96833.22;;;17.96;61.79
52307;BME280;38249;48.920;12.882;2022-09-09T01:44:18;96835.03;;;17.92;61.93
52307;BME280;38249;48.920;12.882;2022-09-09T01:46:46;96845.94;;;17.80;61.84
52307;BME280;38249;48.920;12.882;2022-09-09T01:49:12;96840.50;;;17.80;61.88
52307;BME280;38249;48.920;12.882;2022-09-09T01:51:40;96848.59;;;17.92;62.03
52307;BME280;38249;48.920;12.882;2022-09-09T01:54:08;96852.41;;;17.75;61.81
52307;BME280;38249;48.920;12.882;2022-09-09T01:56:41;96846.66;;;17.92;61.82
52307;BME280;38249;48.920;12.882;2022-09-09T01:59:23;96851.13;;;18.01;61.69
52307;BME280;38249;48.920;12.882;2022-09-09T02:02:00;96848.34;;;17.97;61.45
52307;BME280;38249;48.920;12.882;2022-09-09T02:04:37;96853.31;;;17.95;61.65
52307;BME280;38249;48.920;12.882;2022-09-09T02:07:14;96847.00;;;17.91;61.51
52307;BME280;38249;48.920;12.882;2022-09-09T02:09:47;96845.78;;;17.88;61.45
52307;BME280;38249;48.920;12.882;2022-09-09T02:12:19;96842.97;;;17.85;61.65
52307;BME280;38249;48.920;12.882;2022-09-09T02:14:52;96842.75;;;17.90;61.77
52307;BME280;38249;48.920;12.882;2022-09-09T02:17:25;96848.16;;;17.90;61.49
52307;BME280;38249;48.920;12.882;2022-09-09T02:19:57;96835.53;;;17.82;61.51
52307;BME280;38249;48.920;12.882;2022-09-09T02:22:28;96843.91;;;17.76;61.72
52307;BME280;38249;48.920;12.882;2022-09-09T02:25:00;96848.53;;;17.60;61.98
52307;BME280;38249;48.920;12.882;2022-09-09T02:27:27;96843.72;;;17.69;62.08
52307;BME280;38249;48.920;12.882;2022-09-09T02:29:56;96843.78;;;17.73;62.01
52307;BME280;38249;48.920;12.882;2022-09-09T02:32:25;96856.09;;;17.54;62.00
52307;BME280;38249;48.920;12.882;2022-09-09T02:34:55;96851.06;;;17.69;61.91
52307;BME280;38249;48.920;12.882;2022-09-09T02:37:29;96857.34;;;17.73;61.90
52307;BME280;38249;48.920;12.882;2022-09-09T02:39:58;96850.00;;;17.57;62.13
52307;BME280;38249;48.920;12.882;2022-09-09T02:42:25;96844.22;;;17.59;61.89
52307;BME280;38249;48.920;12.882;2022-09-09T02:44:51;96850.06;;;17.61;61.84
52307;BME280;38249;48.920;12.882;2022-09-09T02:47:30;96850.88;;;17.90;61.56
52307;BME280;38249;48.920;12.882;2022-09-09T02:50:06;96865.56;;;17.89;61.71
52307;BME280;38249;48.920;12.882;2022-09-09T02:52:43;96875.72;;;17.92;61.46
52307;BME280;38249;48.920;12.882;2022-09-09T02:55:20;96872.25;;;17.79;62.19
52307;BME280;38249;48.920;12.882;2022-09-09T02:57:51;96870.22;;;17.76;62.20
52307;BME280;38249;48.920;12.882;2022-09-09T03:00:23;96874.84;;;17.88;61.99
52307;BME280;38249;48.920;12.882;2022-09-09T03:02:52;96874.84;;;17.88;61.80
52307;BME280;38249;48.920;12.882;2022-09-09T03:05:20;96869.44;;;17.75;62.16
52307;BME280;38249;48.920;12.882;2022-09-09T03:07:46;96870.22;;;17.76;62.21
52307;BME280;38249;48.920;12.882;2022-09-09T03:10:15;96869.53;;;17.79;62.27
52307;BME280;38249;48.920;12.882;2022-09-09T03:12:41;96865.69;;;17.80;61.96
52307;BME280;38249;48.920;12.882;2022-09-09T03:15:09;96863.19;;;17.87;61.96
52307;BME280;38249;48.920;12.882;2022-09-09T03:17:36;96859.13;;;17.81;62.09
52307;BME280;38249;48.920;12.882;2022-09-09T03:20:04;96856.47;;;17.97;62.11
52307;BME280;38249;48.920;12.882;2022-09-09T03:22:32;96850.56;;;17.79;62.03
52307;BME280;38249;48.920;12.882;2022-09-09T03:24:59;96853.59;;;17.77;62.06
52307;BME280;38249;48.920;12.882;2022-09-09T03:27:26;96855.97;;;17.79;62.12
52307;BME280;38249;48.920;12.882;2022-09-09T03:29:53;96853.25;;;17.79;62.19
52307;BME280;38249;48.920;12.882;2022-09-09T03:32:20;96856.41;;;17.81;62.07
52307;BME280;38249;48.920;12.882;2022-09-09T03:34:47;96856.06;;;17.83;62.27
52307;BME280;38249;48.920;12.882;2022-09-09T03:37:16;96844.22;;;18.03;62.08
52307;BME280;38249;48.920;12.882;2022-09-09T03:39:43;96844.22;;;17.87;61.90
52307;BME280;38249;48.920;12.882;2022-09-09T03:42:12;96842.28;;;18.04;62.00
52307;BME280;38249;48.920;12.882;2022-09-09T03:44:39;96849.09;;;17.82;62.16
52307;BME280;38249;48.920;12.882;2022-09-09T03:47:07;96851.69;;;17.78;62.20
52307;BME280;38249;48.920;12.882;2022-09-09T03:49:33;96854.41;;;17.78;62.25
52307;BME280;38249;48.920;12.882;2022-09-09T03:52:00;96850.13;;;17.77;61.95
52307;BME280;38249;48.920;12.882;2022-09-09T03:54:28;96849.28;;;17.89;61.99
52307;BME280;38249;48.920;12.882;2022-09-09T03:56:54;96842.94;;;17.69;62.25
52307;BME280;38249;48.920;12.882;2022-09-09T03:59:21;96842.50;;;17.67;62.30
52307;BME280;38249;48.920;12.882;2022-09-09T04:01:48;96830.06;;;17.66;62.25
52307;BME280;38249;48.920;12.882;2022-09-09T04:04:14;96828.47;;;17.65;62.16
52307;BME280;38249;48.920;12.882;2022-09-09T04:06:41;96821.50;;;17.64;62.22
52307;BME280;38249;48.920;12.882;2022-09-09T04:09:07;96817.56;;;17.61;62.59
52307;BME280;38249;48.920;12.882;2022-09-09T04:11:35;96816.47;;;17.78;62.14
52307;BME280;38249;48.920;12.882;2022-09-09T04:14:02;96829.97;;;17.62;62.35
52307;BME280;38249;48.920;12.882;2022-09-09T04:16:31;96828.41;;;17.61;62.36
52307;BME280;38249;48.920;12.882;2022-09-09T04:18:58;96830.66;;;17.59;62.39
52307;BME280;38249;48.920;12.882;2022-09-09T04:21:25;96829.97;;;17.62;62.18
52307;BME280;38249;48.920;12.882;2022-09-09T04:23:52;96831.00;;;17.57;62.35
52307;BME280;38249;48.920;12.882;2022-09-09T04:26:18;96829.00;;;17.54;62.22
52307;BME280;38249;48.920;12.882;2022-09-09T04:28:46;96827.88;;;17.71;62.19
52307;BME280;38249;48.920;12.882;2022-09-09T04:31:15;96834.09;;;17.72;62.12
52307;BME280;38249;48.920;12.882;2022-09-09T04:33:42;96831.59;;;17.51;61.96
52307;BME280;38249;48.920;12.882;2022-09-09T04:36:09;96831.19;;;17.49;61.84
52307;BME280;38249;48.920;12.882;2022-09-09T04:38:35;96831.41;;;17.44;62.20
52307;BME280;38249;48.920;12.882;2022-09-09T04:41:02;96835.25;;;17.43;61.98
52307;BME280;38249;48.920;12.882;2022-09-09T04:43:28;96837.16;;;17.42;62.17
52307;BME280;38249;48.920;12.882;2022-09-09T04:45:57;96831.78;;;17.58;62.14
52307;BME280;38249;48.920;12.882;2022-09-09T04:48:24;96831.53;;;17.47;61.96
52307;BME280;38249;48.920;12.882;2022-09-09T04:50:55;96830.84;;;17.66;61.84
52307;BME280;38249;48.920;12.882;2022-09-09T04:53:22;96829.16;;;17.46;62.02
52307;BME280;38249;48.920;12.882;2022-09-09T04:55:49;96825.44;;;17.38;61.95
52307;BME280;38249;48.920;12.882;2022-09-09T04:58:15;96832.25;;;17.32;62.04
52307;BME280;38249;48.920;12.882;2022-09-09T05:00:42;96830.31;;;17.32;61.92
52307;BME280;38249;48.920;12.882;2022-09-09T05:03:10;96826.78;;;17.44;62.10
52307;BME280;38249;48.920;12.882;2022-09-09T05:05:36;96826.81;;;17.32;62.11
52307;BME280;38249;48.920;12.882;2022-09-09T05:08:04;96819.69;;;17.39;62.07
52307;BME280;38249;48.920;12.882;2022-09-09T05:10:38;96819.91;;;17.63;61.79
52307;BME280;38249;48.920;12.882;2022-09-09T05:13:07;96826.22;;;17.38;61.98
52307;BME280;38249;48.920;12.882;2022-09-09T05:15:36;96829.19;;;17.33;62.08
52307;BME280;38249;48.920;12.882;2022-09-09T05:18:03;96827.03;;;17.39;62.24
52307;BME280;38249;48.920;12.882;2022-09-09T05:20:31;96833.28;;;17.55;62.08
52307;BME280;38249;48.920;12.882;2022-09-09T05:22:57;96828.34;;;17.45;61.77
52307;BME280;38249;48.920;12.882;2022-09-09T05:25:24;96836.09;;;17.59;61.83
52307;BME280;38249;48.920;12.882;2022-09-09T05:27:51;96838.47;;;17.61;61.78
52307;BME280;38249;48.920;12.882;2022-09-09T05:30:18;96837.84;;;17.67;61.74
52307;BME280;38249;48.920;12.882;2022-09-09T05:32:45;96834.53;;;17.74;61.43
52307;BME280;38249;48.920;12.882;2022-09-09T05:35:14;96839.38;;;17.81;61.55
52307;BME280;38249;48.920;12.882;2022-09-09T05:37:42;96830.16;;;17.98;61.42
52307;BME280;38249;48.920;12.882;2022-09-09T05:40:09;96830.31;;;17.89;61.61
52307;BME280;38249;48.920;12.882;2022-09-09T05:42:36;96836.53;;;17.89;61.63
52307;BME280;38249;48.920;12.882;2022-09-09T05:45:03;96837.13;;;17.99;61.68
52307;BME280;38249;48.920;12.882;2022-09-09T05:47:30;96843.81;;;18.01;61.47
52307;BME280;38249;48.920;12.882;2022-09-09T05:49:57;96844.88;;;18.12;61.39
52307;BME280;38249;48.920;12.882;2022-09-09T05:52:23;96846.53;;;18.17;61.21
52307;BME280;38249;48.920;12.882;2022-09-09T05:54:52;96852.19;;;18.44;61.10
52307;BME280;38249;48.920;12.882;2022-09-09T05:57:20;96859.09;;;18.41;60.86
52307;BME280;38249;48.920;12.882;2022-09-09T05:59:46;96860.97;;;18.53;60.55
52307;BME280;38249;48.920;12.882;2022-09-09T06:02:13;96859.63;;;18.63;60.30
52307;BME280;38249;48.920;12.882;2022-09-09T06:04:39;96855.84;;;18.67;60.25
52307;BME280;38249;48.920;12.882;2022-09-09T06:07:07;96862.94;;;18.72;60.43
52307;BME280;38249;48.920;12.882;2022-09-09T06:09:33;96870.38;;;18.75;60.23
52307;BME280;38249;48.920;12.882;2022-09-09T06:12:01;96861.94;;;18.96;60.10
52307;BME280;38249;48.920;12.882;2022-09-09T06:14:28;96854.59;;;18.81;60.22
52307;BME280;38249;48.920;12.882;2022-09-09T06:16:55;96862.50;;;18.86;60.26
52307;BME280;38249;48.920;12.882;2022-09-09T06:19:21;96864.16;;;18.91;60.49
52307;BME280;38249;48.920;12.882;2022-09-09T06:21:49;96854.09;;;18.91;60.45
52307;BME280;38249;48.920;12.882;2022-09-09T06:24:16;96852.66;;;18.97;60.24
52307;BME280;38249;48.920;12.882;2022-09-09T06:26:44;96847.38;;;19.04;60.44
52307;BME280;38249;48.920;12.882;2022-09-09T06:29:12;96849.28;;;19.20;60.46
52307;BME280;38249;48.920;12.882;2022-09-09T06:31:39;96846.59;;;19.04;60.43
52307;BME280;38249;48.920;12.882;2022-09-09T06:34:07;96848.09;;;19.21;60.46
52307;BME280;38249;48.920;12.882;2022-09-09T06:36:35;96856.50;;;19.32;60.64
52307;BME280;38249;48.920;12.882;2022-09-09T06:39:03;96853.84;;;19.35;60.70
52307;BME280;38249;48.920;12.882;2022-09-09T06:41:31;96854.34;;;19.60;60.45
52307;BME280;38249;48.920;12.882;2022-09-09T06:43:58;96867.78;;;19.73;60.32
52307;BME280;38249;48.920;12.882;2022-09-09T06:46:28;96878.88;;;20.03;59.88
52307;BME280;38249;48.920;12.882;2022-09-09T06:48:58;96884.88;;;19.93;59.39
52307;BME280;38249;48.920;12.882;2022-09-09T06:51:26;96887.56;;;20.12;58.95
52307;BME280;38249;48.920;12.882;2022-09-09T06:53:55;96893.56;;;20.22;58.77
52307;BME280;38249;48.920;12.882;2022-09-09T06:56:23;96903.56;;;20.37;58.37
52307;BME280;38249;48.920;12.882;2022-09-09T06:58:51;96910.34;;;20.47;57.26
52307;BME280;38249;48.920;12.882;2022-09-09T07:01:19;96896.72;;;20.47;57.04
52307;BME280;38249;48.920;12.882;2022-09-09T07:03:49;96903.56;;;20.60;55.93
52307;BME280;38249;48.920;12.882;2022-09-09T07:06:17;96897.88;;;20.69;55.60
52307;BME280;38249;48.920;12.882;2022-09-09T07:08:48;96908.91;;;21.03;55.40
52307;BME280;38249;48.920;12.882;2022-09-09T07:11:15;96910.84;;;21.02;55.26
52307;BME280;38249;48.920;12.882;2022-09-09T07:13:41;96911.09;;;21.20;54.56
52307;BME280;38249;48.920;12.882;2022-09-09T07:16:11;96899.69;;;21.41;53.82
52307;BME280;38249;48.920;12.882;2022-09-09T07:18:38;96903.00;;;21.28;53.36
52307;BME280;38249;48.920;12.882;2022-09-09T07:21:06;96897.34;;;21.13;53.06
52307;BME280;38249;48.920;12.882;2022-09-09T07:23:34;96898.88;;;21.11;53.29
52307;BME280;38249;48.920;12.882;2022-09-09T07:26:01;96904.44;;;21.18;53.45
52307;BME280;38249;48.920;12.882;2022-09-09T07:28:28;96909.50;;;21.19;53.82
52307;BME280;38249;48.920;12.882;2022-09-09T07:30:57;96909.38;;;21.39;53.51
52307;BME280;38249;48.920;12.882;2022-09-09T07:33:24;96906.63;;;21.35;53.29
52307;BME280;38249;48.920;12.882;2022-09-09T07:35:52;96896.34;;;21.52;53.74
52307;BME280;38249;48.920;12.882;2022-09-09T07:38:20;96891.38;;;21.61;54.05
52307;BME280;38249;48.920;12.882;2022-09-09T07:40:48;96890.75;;;21.45;54.35
52307;BME280;38249;48.920;12.882;2022-09-09T07:43:14;96883.00;;;21.47;54.46
52307;BME280;38249;48.920;12.882;2022-09-09T07:45:44;96881.41;;;21.46;55.08
52307;BME280;38249;48.920;12.882;2022-09-09T07:48:10;96877.03;;;21.37;55.28
52307;BME280;38249;48.920;12.882;2022-09-09T07:50:37;96887.59;;;21.42;55.25
52307;BME280;38249;48.920;12.882;2022-09-09T07:53:04;96883.31;;;21.41;55.45
52307;BME280;38249;48.920;12.882;2022-09-09T07:55:33;96875.75;;;21.58;55.59
52307;BME280;38249;48.920;12.882;2022-09-09T07:57:59;96883.69;;;21.40;55.63
52307;BME280;38249;48.920;12.882;2022-09-09T08:00:25;96891.00;;;21.32;55.73
52307;BME280;38249;48.920;12.882;2022-09-09T08:02:53;96895.31;;;21.33;55.80
52307;BME280;38249;48.920;12.882;2022-09-09T08:05:20;96901.25;;;21.42;55.38
52307;BME280;38249;48.920;12.882;2022-09-09T08:07:47;96906.09;;;21.53;55.12
52307;BME280;38249;48.920;12.882;2022-09-09T08:10:14;96909.31;;;21.62;54.81
52307;BME280;38249;48.920;12.882;2022-09-09T08:12:42;96912.72;;;21.86;54.90
52307;BME280;38249;48.920;12.882;2022-09-09T08:15:09;96915.31;;;21.75;55.11
52307;BME280;38249;48.920;12.882;2022-09-09T08:17:35;96924.78;;;21.85;54.83
52307;BME280;38249;48.920;12.882;2022-09-09T08:20:03;96921.88;;;22.04;54.83
52307;BME280;38249;48.920;12.882;2022-09-09T08:22:32;96924.66;;;22.11;54.39
52307;BME280;38249;48.920;12.882;2022-09-09T08:24:59;96922.88;;;22.26;54.46
52307;BME280;38249;48.920;12.882;2022-09-09T08:27:25;96925.88;;;22.55;53.51
52307;BME280;38249;48.920;12.882;2022-09-09T08:29:53;96929.91;;;23.17;52.63
52307;BME280;38249;48.920;12.882;2022-09-09T08:32:21;96931.25;;;23.48;52.14
52307;BME280;38249;48.920;12.882;2022-09-09T08:34:48;96938.56;;;24.21;50.29
52307;BME280;38249;48.920;12.882;2022-09-09T08:37:14;96933.94;;;24.50;49.14
52307;BME280;38249;48.920;12.882;2022-09-09T08:39:41;96940.56;;;24.35;49.30
52307;BME280;38249;48.920;12.882;2022-09-09T08:42:35;96932.34;;;24.39;49.04
52307;BME280;38249;48.920;12.882;2022-09-09T08:45:24;96928.78;;;24.09;49.64
52307;BME280;38249;48.920;12.882;2022-09-09T08:48:08;96936.13;;;23.84;50.41
52307;BME280;38249;48.920;12.882;2022-09-09T08:50:38;96941.41;;;23.51;50.91
52307;BME280;38249;48.920;12.882;2022-09-09T08:53:11;96953.53;;;23.50;50.38
52307;BME280;38249;48.920;12.882;2022-09-09T08:55:44;96954.59;;;23.28;50.70
52307;BME280;38249;48.920;12.882;2022-09-09T08:58:14;96952.41;;;22.99;50.74
52307;BME280;38249;48.920;12.882;2022-09-09T09:03:37;96972.44;;;22.66;52.07
52307;BME280;38249;48.920;12.882;2022-09-09T09:06:19;96968.34;;;22.45;51.82
52307;BME280;38249;48.920;12.882;2022-09-09T09:08:54;96975.25;;;22.36;51.71
52307;BME280;38249;48.920;12.882;2022-09-09T09:11:24;96965.94;;;22.40;51.47
52307;BME280;38249;48.920;12.882;2022-09-09T09:13:54;96969.09;;;22.87;50.48
52307;BME280;38249;48.920;12.882;2022-09-09T09:16:28;96969.47;;;22.85;50.52
52307;BME280;38249;48.920;12.882;2022-09-09T09:18:58;96973.09;;;22.52;50.68
52307;BME280;38249;48.920;12.882;2022-09-09T09:21:31;96969.69;;;22.62;50.33
52307;BME280;38249;48.920;12.882;2022-09-09T09:24:01;96973.19;;;22.63;50.22
52307;BME280;38249;48.920;12.882;2022-09-09T09:26:32;96985.19;;;22.51;50.56
52307;BME280;38249;48.920;12.882;2022-09-09T09:29:07;96975.91;;;22.59;50.71
52307;BME280;38249;48.920;12.882;2022-09-09T09:31:37;96972.44;;;22.66;51.02
52307;BME280;38249;48.920;12.882;2022-09-09T09:34:04;96974.78;;;22.64;51.30
52307;BME280;38249;48.920;12.882;2022-09-09T09:36:37;96981.31;;;23.00;51.07
52307;BME280;38249;48.920;12.882;2022-09-09T09:39:04;96978.56;;;22.97;50.90
52307;BME280;38249;48.920;12.882;2022-09-09T09:41:34;96989.75;;;23.26;50.47
52307;BME280;38249;48.920;12.882;2022-09-09T09:44:02;96988.25;;;22.91;50.16
52307;BME280;38249;48.920;12.882;2022-09-09T09:46:29;96986.41;;;22.57;50.83
52307;BME280;38249;48.920;12.882;2022-09-09T09:48:59;96979.72;;;22.96;50.19
52307;BME280;38249;48.920;12.882;2022-09-09T09:51:27;96983.41;;;23.14;50.14
52307;BME280;38249;48.920;12.882;2022-09-09T09:54:04;96980.69;;;23.14;49.61
52307;BME280;38249;48.920;12.882;2022-09-09T09:56:35;96974.56;;;22.83;50.08
52307;BME280;38249;48.920;12.882;2022-09-09T09:59:02;96985.31;;;22.28;50.73
52307;BME280;38249;48.920;12.882;2022-09-09T10:01:30;96987.81;;;22.44;50.78
52307;BME280;38249;48.920;12.882;2022-09-09T10:04:01;96978.97;;;22.54;50.91
52307;BME280;38249;48.920;12.882;2022-09-09T10:06:32;96979.16;;;22.76;50.02
52307;BME280;38249;48.920;12.882;2022-09-09T10:09:01;96982.28;;;22.78;49.56
52307;BME280;38249;48.920;12.882;2022-09-09T10:11:37;96986.22;;;22.80;49.72
52307;BME280;38249;48.920;12.882;2022-09-09T10:14:14;96989.34;;;22.79;49.91
52307;BME280;38249;48.920;12.882;2022-09-09T10:16:52;96978.00;;;22.77;49.48
52307;BME280;38249;48.920;12.882;2022-09-09T10:19:29;96990.41;;;22.67;49.51
52307;BME280;38249;48.920;12.882;2022-09-09T10:22:16;96986.13;;;22.69;49.08
52307;BME280;38249;48.920;12.882;2022-09-09T10:25:16;96990.22;;;22.90;49.64
52307;BME280;38249;48.920;12.882;2022-09-09T10:27:56;96987.84;;;22.85;48.67
52307;BME280;38249;48.920;12.882;2022-09-09T10:30:34;96985.72;;;22.67;49.38
52307;BME280;38249;48.920;12.882;2022-09-09T10:33:10;96987.81;;;22.44;49.18
52307;BME280;38249;48.920;12.882;2022-09-09T10:35:46;96981.69;;;22.17;49.13
52307;BME280;38249;48.920;12.882;2022-09-09T10:38:20;96988.50;;;22.00;49.91
52307;BME280;38249;48.920;12.882;2022-09-09T10:41:04;96980.72;;;22.02;49.92
52307;BME280;38249;48.920;12.882;2022-09-09T10:43:46;96983.31;;;21.91;49.96
52307;BME280;38249;48.920;12.882;2022-09-09T10:46:23;96989.91;;;21.86;49.99
52307;BME280;38249;48.920;12.882;2022-09-09T10:49:05;96980.97;;;21.89;50.09
52307;BME280;38249;48.920;12.882;2022-09-09T10:51:45;96996.22;;;21.94;50.55
52307;BME280;38249;48.920;12.882;2022-09-09T10:54:35;97003.88;;;21.81;50.86
52307;BME280;38249;48.920;12.882;2022-09-09T10:57:07;97001.97;;;21.55;51.53
52307;BME280;38249;48.920;12.882;2022-09-09T10:59:39;96995.84;;;21.65;51.69
52307;BME280;38249;48.920;12.882;2022-09-09T11:02:13;96993.31;;;21.79;51.88
52307;BME280;38249;48.920;12.882;2022-09-09T11:04:45;96988.97;;;21.75;51.45
52307;BME280;38249;48.920;12.882;2022-09-09T11:07:24;96995.88;;;21.95;51.38
52307;BME280;38249;48.920;12.882;2022-09-09T11:09:59;96984.28;;;22.06;51.15
52307;BME280;38249;48.920;12.882;2022-09-09T11:12:28;96986.22;;;22.05;51.46
52307;BME280;38249;48.920;12.882;2022-09-09T11:15:00;96982.38;;;22.10;51.35
52307;BME280;38249;48.920;12.882;2022-09-09T11:17:34;96976.94;;;22.10;51.53
52307;BME280;38249;48.920;12.882;2022-09-09T11:20:05;96981.59;;;22.09;51.23
52307;BME280;38249;48.920;12.882;2022-09-09T11:22:35;96978.44;;;22.07;51.02
52307;BME280;38249;48.920;12.882;2022-09-09T11:25:07;96980.94;;;21.86;52.09
52307;BME280;38249;48.920;12.882;2022-09-09T11:27:40;96973.00;;;21.77;52.35
52307;BME280;38249;48.920;12.882;2022-09-09T11:30:20;96960.50;;;21.72;52.01
52307;BME280;38249;48.920;12.882;2022-09-09T11:33:18;96955.94;;;21.84;52.57
52307;BME280;38249;48.920;12.882;2022-09-09T11:36:07;96952.56;;;21.94;53.21
52307;BME280;38249;48.920;12.882;2022-09-09T11:38:44;96956.81;;;21.91;53.67
52307;BME280;38249;48.920;12.882;2022-09-09T11:41:13;96958.72;;;21.87;54.32
52307;BME280;38249;48.920;12.882;2022-09-09T11:43:43;96955.75;;;22.00;54.51
52307;BME280;38249;48.920;12.882;2022-09-09T11:46:10;96953.38;;;21.98;53.76
52307;BME280;38249;48.920;12.882;2022-09-09T11:48:40;96941.19;;;22.26;53.50
52307;BME280;38249;48.920;12.882;2022-09-09T11:51:11;96941.41;;;22.44;53.04
52307;BME280;38249;48.920;12.882;2022-09-09T11:53:54;96940.44;;;22.70;53.01
52307;BME280;38249;48.920;12.882;2022-09-09T11:56:26;96934.94;;;22.63;51.83
52307;BME280;38249;48.920;12.882;2022-09-09T11:59:04;96936.66;;;22.82;51.70
52307;BME280;38249;48.920;12.882;2022-09-09T12:01:35;96928.13;;;22.91;52.19
52307;BME280;38249;48.920;12.882;2022-09-09T12:04:28;96925.66;;;23.27;50.93
52307;BME280;38249;48.920;12.882;2022-09-09T12:06:58;96935.84;;;23.30;51.13
52307;BME280;38249;48.920;12.882;2022-09-09T12:09:43;96940.09;;;23.27;50.31
52307;BME280;38249;48.920;12.882;2022-09-09T12:12:29;96945.34;;;23.54;50.65
52307;BME280;38249;48.920;12.882;2022-09-09T12:17:47;96940.94;;;23.31;50.61
52307;BME280;38249;48.920;12.882;2022-09-09T12:20:17;96951.66;;;23.61;50.47
52307;BME280;38249;48.920;12.882;2022-09-09T12:23:05;96953.47;;;24.34;48.67
52307;BME280;38249;48.920;12.882;2022-09-09T12:25:44;96951.59;;;24.78;47.82
52307;BME280;38249;48.920;12.882;2022-09-09T12:28:17;96950.03;;;24.88;48.39
52307;BME280;38249;48.920;12.882;2022-09-09T12:30:50;96943.38;;;24.71;46.71
52307;BME280;38249;48.920;12.882;2022-09-09T12:33:20;96948.38;;;24.22;47.69
52307;BME280;38249;48.920;12.882;2022-09-09T12:35:51;96958.50;;;24.07;48.62
52307;BME280;38249;48.920;12.882;2022-09-09T12:38:25;96959.91;;;23.72;49.51
52307;BME280;38249;48.920;12.882;2022-09-09T12:40:56;96958.75;;;23.80;49.61
52307;BME280;38249;48.920;12.882;2022-09-09T12:43:25;96951.06;;;24.08;48.27
52307;BME280;38249;48.920;12.882;2022-09-09T12:45:56;96958.97;;;24.42;46.90
52307;BME280;38249;48.920;12.882;2022-09-09T12:48:28;96968.03;;;24.82;45.80
52307;BME280;38249;48.920;12.882;2022-09-09T12:50:56;96956.69;;;24.83;45.92
52307;BME280;38249;48.920;12.882;2022-09-09T12:53:25;96958.63;;;25.37;44.54
52307;BME280;38249;48.920;12.882;2022-09-09T12:55:57;96969.16;;;27.84;40.40
52307;BME280;38249;48.920;12.882;2022-09-09T12:58:25;96956.91;;;29.69;36.96
52307;BME280;38249;48.920;12.882;2022-09-09T13:00:54;96965.44;;;31.50;34.17
52307;BME280;38249;48.920;12.882;2022-09-09T13:03:21;96964.88;;;33.03;31.33
52307;BME280;38249;48.920;12.882;2022-09-09T13:05:49;96961.03;;;32.11;32.37
52307;BME280;38249;48.920;12.882;2022-09-09T13:08:16;96953.41;;;32.66;31.87
52307;BME280;38249;48.920;12.882;2022-09-09T13:10:48;96960.25;;;31.81;33.39
52307;BME280;38249;48.920;12.882;2022-09-09T13:13:25;96947.34;;;30.13;34.82
52307;BME280;38249;48.920;12.882;2022-09-09T13:15:54;96945.97;;;30.22;35.05